sensor_id;sensor_type;location;lat;lon;timestamp;pressure;altitude;pressure_sealevel;temperature;humidity
13124;BME280;6627;50.920;12.050;2023-02-17T00:01:24;99151.38;;;16.04;45.47
13124;BME280;6627;50.920;12.050;2023-02-17T00:03:52;99081.53;;;15.85;44.82
13124;BME280;6627;50.920;12.050;2023-02-17T00:06:23;99088.66;;;15.60;46.22
13124;BME280;6627;50.920;12.050;2023-02-17T00:08:53;99126.66;;;15.92;45.72
13124;BME280;6627;50.920;12.050;2023-02-17T00:11:21;99206.88;;;16.43;45.44
13124;BME280;6627;50.920;12.050;2023-02-17T00:13:48;99149.03;;;16.23;45.09
13124;BME280;6627;50.920;12.050;2023-02-17T00:16:18;99125.22;;;15.94;45.38
13124;BME280;6627;50.920;12.050;2023-02-17T00:18:51;99097.75;;;15.91;45.23
13124;BME280;6627;50.920;12.050;2023-02-17T00:21:25;99142.78;;;16.23;45.15
13124;BME280;6627;50.920;12.050;2023-02-17T00:23:56;99093.31;;;15.60;46.30
13124;BME280;6627;50.920;12.050;2023-02-17T00:26:23;99098.78;;;15.60;46.22
13124;BME280;6627;50.920;12.050;2023-02-17T00:28:51;99149.56;;;16.17;45.36
13124;BME280;6627;50.920;12.050;2023-02-17T00:31:21;99147.50;;;16.05;45.68
13124;BME280;6627;50.920;12.050;2023-02-17T00:33:52;99151.00;;;16.14;45.36
13124;BME280;6627;50.920;12.050;2023-02-17T00:36:21;99138.97;;;16.06;45.52
13124;BME280;6627;50.920;12.050;2023-02-17T00:38:50;99176.13;;;16.07;46.04
13124;BME280;6627;50.920;12.050;2023-02-17T00:41:19;99055.09;;;15.69;45.64
13124;BME280;6627;50.920;12.050;2023-02-17T00:43:48;99166.06;;;16.29;45.48
13124;BME280;6627;50.920;12.050;2023-02-17T00:46:17;99098.25;;;15.84;45.82
13124;BME280;6627;50.920;12.050;2023-02-17T00:48:44;99142.63;;;16.19;45.50
13124;BME280;6627;50.920;12.050;2023-02-17T00:51:14;99069.44;;;15.39;46.38
13124;BME280;6627;50.920;12.050;2023-02-17T00:53:42;99168.34;;;16.18;45.66
13124;BME280;6627;50.920;12.050;2023-02-17T00:56:09;99137.84;;;16.16;45.48
13124;BME280;6627;50.920;12.050;2023-02-17T00:58:38;99226.09;;;16.55;45.82
13124;BME280;6627;50.920;12.050;2023-02-17T01:01:07;99115.59;;;16.26;45.00
13124;BME280;6627;50.920;12.050;2023-02-17T01:03:34;99253.66;;;16.88;45.28
13124;BME280;6627;50.920;12.050;2023-02-17T01:06:06;99191.97;;;16.61;45.06
13124;BME280;6627;50.920;12.050;2023-02-17T01:08:34;99142.94;;;16.26;45.24
13124;BME280;6627;50.920;12.050;2023-02-17T01:11:02;99262.56;;;17.06;44.81
13124;BME280;6627;50.920;12.050;2023-02-17T01:13:29;99229.69;;;16.85;44.90
13124;BME280;6627;50.920;12.050;2023-02-17T01:15:58;99253.13;;;16.95;45.16
13124;BME280;6627;50.920;12.050;2023-02-17T01:18:25;99151.59;;;16.28;45.62
13124;BME280;6627;50.920;12.050;2023-02-17T01:20:53;99328.81;;;17.50;44.60
13124;BME280;6627;50.920;12.050;2023-02-17T01:23:21;99259.72;;;16.94;45.45
13124;BME280;6627;50.920;12.050;2023-02-17T01:25:48;99256.25;;;16.84;45.68
13124;BME280;6627;50.920;12.050;2023-02-17T01:28:19;99129.78;;;16.11;46.47
13124;BME280;6627;50.920;12.050;2023-02-17T01:30:48;99199.97;;;16.75;45.32
13124;BME280;6627;50.920;12.050;2023-02-17T01:33:17;99146.78;;;16.25;46.37
13124;BME280;6627;50.920;12.050;2023-02-17T01:35:45;99087.69;;;15.74;47.12
13124;BME280;6627;50.920;12.050;2023-02-17T01:38:13;99187.00;;;16.54;46.02
13124;BME280;6627;50.920;12.050;2023-02-17T01:40:46;99129.06;;;16.31;46.12
13124;BME280;6627;50.920;12.050;2023-02-17T01:43:16;99033.06;;;15.74;46.27
13124;BME280;6627;50.920;12.050;2023-02-17T01:45:50;99180.13;;;16.48;46.35
13124;BME280;6627;50.920;12.050;2023-02-17T01:48:24;99151.06;;;16.44;46.18
13124;BME280;6627;50.920;12.050;2023-02-17T01:50:57;99074.88;;;16.04;46.06
13124;BME280;6627;50.920;12.050;2023-02-17T01:53:32;99064.09;;;15.69;47.04
13124;BME280;6627;50.920;12.050;2023-02-17T01:56:02;99148.31;;;16.44;46.01
13124;BME280;6627;50.920;12.050;2023-02-17T01:58:30;99171.78;;;16.45;46.42
13124;BME280;6627;50.920;12.050;2023-02-17T02:01:03;99126.16;;;16.36;45.92
13124;BME280;6627;50.920;12.050;2023-02-17T02:03:36;99163.38;;;16.50;46.27
13124;BME280;6627;50.920;12.050;2023-02-17T02:06:09;99217.66;;;16.77;46.38
13124;BME280;6627;50.920;12.050;2023-02-17T02:08:46;99131.47;;;16.33;46.13
13124;BME280;6627;50.920;12.050;2023-02-17T02:11:17;99072.16;;;16.04;46.19
13124;BME280;6627;50.920;12.050;2023-02-17T02:13:44;99103.56;;;16.19;46.29
13124;BME280;6627;50.920;12.050;2023-02-17T02:16:20;99087.09;;;15.98;46.68
13124;BME280;6627;50.920;12.050;2023-02-17T02:19:00;99128.84;;;16.07;47.59
13124;BME280;6627;50.920;12.050;2023-02-17T02:22:17;99159.00;;;16.57;46.38
13124;BME280;6627;50.920;12.050;2023-02-17T02:25:05;99178.84;;;16.84;45.69
13124;BME280;6627;50.920;12.050;2023-02-17T02:27:53;99103.06;;;16.25;46.34
13124;BME280;6627;50.920;12.050;2023-02-17T02:31:11;99016.78;;;15.39;47.74
13124;BME280;6627;50.920;12.050;2023-02-17T02:33:49;99173.03;;;16.56;46.77
13124;BME280;6627;50.920;12.050;2023-02-17T02:36:24;99189.00;;;16.83;46.17
13124;BME280;6627;50.920;12.050;2023-02-17T02:38:58;99052.44;;;15.89;47.03
13124;BME280;6627;50.920;12.050;2023-02-17T02:41:32;99022.03;;;15.53;47.71
13124;BME280;6627;50.920;12.050;2023-02-17T02:44:03;99096.16;;;15.89;47.66
13124;BME280;6627;50.920;12.050;2023-02-17T02:46:31;99040.03;;;15.54;48.18
13124;BME280;6627;50.920;12.050;2023-02-17T02:49:00;99096.34;;;16.14;47.36
13124;BME280;6627;50.920;12.050;2023-02-17T02:51:42;99081.59;;;16.06;47.41
13124;BME280;6627;50.920;12.050;2023-02-17T02:54:24;99078.19;;;15.62;48.57
13124;BME280;6627;50.920;12.050;2023-02-17T03:00:08;99188.59;;;16.55;47.92
13124;BME280;6627;50.920;12.050;2023-02-17T03:02:47;99139.63;;;16.12;48.40
13124;BME280;6627;50.920;12.050;2023-02-17T03:05:27;99102.06;;;15.92;48.46
13124;BME280;6627;50.920;12.050;2023-02-17T03:08:04;99090.38;;;15.82;49.03
13124;BME280;6627;50.920;12.050;2023-02-17T03:10:34;99084.16;;;15.73;48.91
13124;BME280;6627;50.920;12.050;2023-02-17T03:13:03;99117.50;;;15.96;48.69
13124;BME280;6627;50.920;12.050;2023-02-17T03:15:33;99147.91;;;16.24;48.62
13124;BME280;6627;50.920;12.050;2023-02-17T03:18:02;99180.34;;;16.64;48.23
13124;BME280;6627;50.920;12.050;2023-02-17T03:20:37;99149.72;;;16.50;48.31
13124;BME280;6627;50.920;12.050;2023-02-17T03:23:07;99227.69;;;17.24;47.14
13124;BME280;6627;50.920;12.050;2023-02-17T03:25:35;99146.72;;;16.72;47.21
13124;BME280;6627;50.920;12.050;2023-02-17T03:28:03;99227.63;;;17.32;46.62
13124;BME280;6627;50.920;12.050;2023-02-17T03:30:31;99168.69;;;16.84;47.24
13124;BME280;6627;50.920;12.050;2023-02-17T03:32:58;99174.56;;;16.95;47.51
13124;BME280;6627;50.920;12.050;2023-02-17T03:35:25;99094.53;;;16.27;48.46
13124;BME280;6627;50.920;12.050;2023-02-17T03:37:54;99049.41;;;15.82;49.19
13124;BME280;6627;50.920;12.050;2023-02-17T03:40:22;99119.31;;;16.22;49.56
13124;BME280;6627;50.920;12.050;2023-02-17T03:42:49;99120.94;;;16.14;49.77
13124;BME280;6627;50.920;12.050;2023-02-17T03:45:16;99061.81;;;15.62;50.91
13124;BME280;6627;50.920;12.050;2023-02-17T03:47:44;99113.41;;;16.11;50.29
13124;BME280;6627;50.920;12.050;2023-02-17T03:50:11;99106.91;;;16.24;49.50
13124;BME280;6627;50.920;12.050;2023-02-17T03:52:38;99135.78;;;16.43;49.57
13124;BME280;6627;50.920;12.050;2023-02-17T03:55:08;99079.09;;;15.93;50.02
13124;BME280;6627;50.920;12.050;2023-02-17T03:57:35;99098.41;;;15.87;50.68
13124;BME280;6627;50.920;12.050;2023-02-17T04:00:04;99160.69;;;16.41;49.92
13124;BME280;6627;50.920;12.050;2023-02-17T04:02:32;99123.50;;;16.19;50.07
13124;BME280;6627;50.920;12.050;2023-02-17T04:05:01;99131.41;;;16.12;50.46
13124;BME280;6627;50.920;12.050;2023-02-17T04:07:28;99191.13;;;16.69;49.47
13124;BME280;6627;50.920;12.050;2023-02-17T04:09:56;99220.47;;;16.89;49.46
13124;BME280;6627;50.920;12.050;2023-02-17T04:12:25;99157.34;;;16.35;49.62
13124;BME280;6627;50.920;12.050;2023-02-17T04:14:52;99138.47;;;16.13;50.62
13124;BME280;6627;50.920;12.050;2023-02-17T04:17:20;99154.38;;;16.49;49.79
13124;BME280;6627;50.920;12.050;2023-02-17T04:19:47;99114.34;;;15.77;51.27
13124;BME280;6627;50.920;12.050;2023-02-17T04:22:14;99114.94;;;15.91;51.08
13124;BME280;6627;50.920;12.050;2023-02-17T04:24:42;99158.00;;;16.32;50.91
13124;BME280;6627;50.920;12.050;2023-02-17T04:27:09;99246.81;;;17.03;49.95
13124;BME280;6627;50.920;12.050;2023-02-17T04:29:39;99107.72;;;15.86;50.81
13124;BME280;6627;50.920;12.050;2023-02-17T04:32:06;99143.34;;;16.37;50.13
13124;BME280;6627;50.920;12.050;2023-02-17T04:34:33;99161.78;;;16.49;50.18
13124;BME280;6627;50.920;12.050;2023-02-17T04:37:00;99164.53;;;16.49;50.34
13124;BME280;6627;50.920;12.050;2023-02-17T04:39:29;99115.09;;;15.95;50.91
13124;BME280;6627;50.920;12.050;2023-02-17T04:41:57;99051.78;;;15.46;51.47
13124;BME280;6627;50.920;12.050;2023-02-17T04:44:25;99121.84;;;15.88;51.51
13124;BME280;6627;50.920;12.050;2023-02-17T04:46:53;99170.91;;;16.23;51.58
13124;BME280;6627;50.920;12.050;2023-02-17T04:49:21;99213.63;;;16.83;50.03
13124;BME280;6627;50.920;12.050;2023-02-17T04:51:50;99206.16;;;16.54;50.72
13124;BME280;6627;50.920;12.050;2023-02-17T04:54:17;99183.03;;;16.52;50.62
13124;BME280;6627;50.920;12.050;2023-02-17T04:56:45;99185.50;;;16.74;49.83
13124;BME280;6627;50.920;12.050;2023-02-17T04:59:13;99181.28;;;16.47;50.74
13124;BME280;6627;50.920;12.050;2023-02-17T05:01:42;99171.47;;;16.37;50.86
13124;BME280;6627;50.920;12.050;2023-02-17T05:04:12;99174.09;;;16.63;50.08
13124;BME280;6627;50.920;12.050;2023-02-17T05:06:40;99167.16;;;16.66;50.06
13124;BME280;6627;50.920;12.050;2023-02-17T05:09:08;99164.16;;;16.59;50.12
13124;BME280;6627;50.920;12.050;2023-02-17T05:11:37;99156.31;;;16.49;50.65
13124;BME280;6627;50.920;12.050;2023-02-17T05:14:04;99177.34;;;16.86;49.73
13124;BME280;6627;50.920;12.050;2023-02-17T05:16:32;99181.91;;;16.82;49.96
13124;BME280;6627;50.920;12.050;2023-02-17T05:18:59;99062.88;;;15.87;50.88
13124;BME280;6627;50.920;12.050;2023-02-17T05:21:29;99112.75;;;16.14;51.11
13124;BME280;6627;50.920;12.050;2023-02-17T05:23:56;99175.44;;;16.57;51.25
13124;BME280;6627;50.920;12.050;2023-02-17T05:26:24;99111.06;;;16.30;50.84
13124;BME280;6627;50.920;12.050;2023-02-17T05:28:52;99116.16;;;16.40;50.59
13124;BME280;6627;50.920;12.050;2023-02-17T05:31:20;99122.19;;;16.55;50.43
13124;BME280;6627;50.920;12.050;2023-02-17T05:33:47;99086.38;;;15.80;51.91
13124;BME280;6627;50.920;12.050;2023-02-17T05:36:15;99069.38;;;15.74;52.07
13124;BME280;6627;50.920;12.050;2023-02-17T05:38:45;99043.03;;;15.61;52.42
13124;BME280;6627;50.920;12.050;2023-02-17T05:41:20;99116.16;;;16.02;52.42
13124;BME280;6627;50.920;12.050;2023-02-17T05:43:48;99163.38;;;16.50;51.53
13124;BME280;6627;50.920;12.050;2023-02-17T05:46:15;99125.34;;;15.98;52.58
13124;BME280;6627;50.920;12.050;2023-02-17T05:48:43;99032.13;;;14.97;54.19
13124;BME280;6627;50.920;12.050;2023-02-17T05:51:11;99110.31;;;15.74;53.46
13124;BME280;6627;50.920;12.050;2023-02-17T05:53:38;99191.38;;;16.47;51.89
13124;BME280;6627;50.920;12.050;2023-02-17T05:56:08;99134.78;;;16.18;52.06
13124;BME280;6627;50.920;12.050;2023-02-17T05:58:35;99172.81;;;16.31;52.45
13124;BME280;6627;50.920;12.050;2023-02-17T06:01:07;99147.03;;;16.03;52.95
13124;BME280;6627;50.920;12.050;2023-02-17T06:03:35;99144.59;;;16.10;52.77
13124;BME280;6627;50.920;12.050;2023-02-17T06:06:02;99145.38;;;16.10;52.40
13124;BME280;6627;50.920;12.050;2023-02-17T06:08:30;99139.69;;;15.95;53.27
13124;BME280;6627;50.920;12.050;2023-02-17T06:10:57;99157.59;;;16.13;53.11
13124;BME280;6627;50.920;12.050;2023-02-17T06:13:26;99140.44;;;16.04;53.26
13124;BME280;6627;50.920;12.050;2023-02-17T06:15:53;99162.13;;;16.09;53.21
13124;BME280;6627;50.920;12.050;2023-02-17T06:18:21;99164.50;;;16.19;52.95
13124;BME280;6627;50.920;12.050;2023-02-17T06:20:49;99146.50;;;16.18;52.55
13124;BME280;6627;50.920;12.050;2023-02-17T06:23:17;99125.06;;;15.91;52.76
13124;BME280;6627;50.920;12.050;2023-02-17T06:25:45;99190.81;;;16.32;52.93
13124;BME280;6627;50.920;12.050;2023-02-17T06:28:12;99162.47;;;16.07;53.01
13124;BME280;6627;50.920;12.050;2023-02-17T06:30:42;99194.38;;;16.62;52.65
13124;BME280;6627;50.920;12.050;2023-02-17T06:33:10;99129.94;;;16.14;52.13
13124;BME280;6627;50.920;12.050;2023-02-17T06:35:38;99159.50;;;16.21;52.54
13124;BME280;6627;50.920;12.050;2023-02-17T06:38:07;99143.06;;;15.92;53.25
13124;BME280;6627;50.920;12.050;2023-02-17T06:40:35;99182.56;;;16.41;52.45
13124;BME280;6627;50.920;12.050;2023-02-17T06:43:05;99190.69;;;16.58;52.45
13124;BME280;6627;50.920;12.050;2023-02-17T06:45:33;99191.66;;;16.92;51.25
13124;BME280;6627;50.920;12.050;2023-02-17T06:48:03;99100.88;;;16.10;51.88
13124;BME280;6627;50.920;12.050;2023-02-17T06:50:30;99152.59;;;16.53;51.78
13124;BME280;6627;50.920;12.050;2023-02-17T06:52:58;99185.84;;;16.64;52.03
13124;BME280;6627;50.920;12.050;2023-02-17T06:55:25;99166.22;;;16.62;51.78
13124;BME280;6627;50.920;12.050;2023-02-17T06:57:54;99101.91;;;15.97;52.57
13124;BME280;6627;50.920;12.050;2023-02-17T07:00:22;99204.81;;;16.99;51.52
13124;BME280;6627;50.920;12.050;2023-02-17T07:02:50;99177.75;;;16.76;51.56
13124;BME280;6627;50.920;12.050;2023-02-17T07:05:18;99126.16;;;16.36;51.94
13124;BME280;6627;50.920;12.050;2023-02-17T07:07:46;99182.56;;;16.79;51.90
13124;BME280;6627;50.920;12.050;2023-02-17T07:10:14;99160.34;;;16.51;52.79
13124;BME280;6627;50.920;12.050;2023-02-17T07:12:42;99122.19;;;16.25;52.87
13124;BME280;6627;50.920;12.050;2023-02-17T07:15:09;99149.47;;;16.72;51.68
13124;BME280;6627;50.920;12.050;2023-02-17T07:17:36;99099.47;;;16.04;52.94
13124;BME280;6627;50.920;12.050;2023-02-17T07:20:06;99136.25;;;16.45;52.46
13124;BME280;6627;50.920;12.050;2023-02-17T07:22:37;99165.59;;;16.65;52.41
13124;BME280;6627;50.920;12.050;2023-02-17T07:25:05;99135.19;;;16.28;53.26
13124;BME280;6627;50.920;12.050;2023-02-17T07:27:35;99119.94;;;16.27;52.96
13124;BME280;6627;50.920;12.050;2023-02-17T07:30:04;99099.19;;;16.26;52.77
13124;BME280;6627;50.920;12.050;2023-02-17T07:32:31;99079.63;;;15.86;53.73
13124;BME280;6627;50.920;12.050;2023-02-17T07:34:59;99143.50;;;16.40;53.30
13124;BME280;6627;50.920;12.050;2023-02-17T07:37:27;99097.31;;;16.18;53.00
13124;BME280;6627;50.920;12.050;2023-02-17T07:39:57;99169.25;;;16.69;53.20
13124;BME280;6627;50.920;12.050;2023-02-17T07:42:26;99128.91;;;16.28;53.47
13124;BME280;6627;50.920;12.050;2023-02-17T07:44:54;99129.13;;;16.52;52.85
13124;BME280;6627;50.920;12.050;2023-02-17T07:47:22;99117.50;;;16.34;53.33
13124;BME280;6627;50.920;12.050;2023-02-17T07:49:50;99164.56;;;16.99;51.81
13124;BME280;6627;50.920;12.050;2023-02-17T07:52:19;99096.69;;;16.42;52.26
13124;BME280;6627;50.920;12.050;2023-02-17T07:54:47;99111.53;;;16.32;53.01
13124;BME280;6627;50.920;12.050;2023-02-17T07:57:17;99162.50;;;16.67;53.12
13124;BME280;6627;50.920;12.050;2023-02-17T07:59:45;99070.72;;;15.98;53.36
13124;BME280;6627;50.920;12.050;2023-02-17T08:02:14;99171.88;;;16.86;52.74
13124;BME280;6627;50.920;12.050;2023-02-17T08:04:42;99173.22;;;16.80;52.94
13124;BME280;6627;50.920;12.050;2023-02-17T08:07:09;99046.13;;;15.98;52.97
13124;BME280;6627;50.920;12.050;2023-02-17T08:09:38;99182.56;;;17.09;52.59
13124;BME280;6627;50.920;12.050;2023-02-17T08:12:25;99188.16;;;17.33;51.93
13124;BME280;6627;50.920;12.050;2023-02-17T08:15:12;99143.94;;;16.81;52.48
13124;BME280;6627;50.920;12.050;2023-02-17T08:17:41;99124.34;;;16.70;52.52
13124;BME280;6627;50.920;12.050;2023-02-17T08:20:10;99174.88;;;17.23;51.87
13124;BME280;6627;50.920;12.050;2023-02-17T08:22:38;99102.13;;;16.72;51.90
13124;BME280;6627;50.920;12.050;2023-02-17T08:25:07;99103.63;;;16.69;52.37
13124;BME280;6627;50.920;12.050;2023-02-17T08:27:38;99174.59;;;17.37;51.91
13124;BME280;6627;50.920;12.050;2023-02-17T08:30:07;99148.28;;;17.24;51.47
13124;BME280;6627;50.920;12.050;2023-02-17T08:32:37;99119.44;;;16.55;52.43
13124;BME280;6627;50.920;12.050;2023-02-17T08:35:06;99111.03;;;16.89;51.94
13124;BME280;6627;50.920;12.050;2023-02-17T08:37:33;99128.13;;;17.07;51.97
13124;BME280;6627;50.920;12.050;2023-02-17T08:40:02;99140.66;;;17.29;51.50
13124;BME280;6627;50.920;12.050;2023-02-17T08:42:31;99080.31;;;16.63;51.85
13124;BME280;6627;50.920;12.050;2023-02-17T08:44:59;99148.38;;;17.15;51.99
13124;BME280;6627;50.920;12.050;2023-02-17T08:47:27;99151.41;;;17.34;51.51
13124;BME280;6627;50.920;12.050;2023-02-17T08:49:55;99065.63;;;16.68;52.11
13124;BME280;6627;50.920;12.050;2023-02-17T08:52:22;99174.38;;;17.63;51.16
13124;BME280;6627;50.920;12.050;2023-02-17T08:54:49;99115.69;;;17.31;50.96
13124;BME280;6627;50.920;12.050;2023-02-17T08:57:17;99129.56;;;17.47;50.95
13124;BME280;6627;50.920;12.050;2023-02-17T08:59:46;99108.66;;;17.09;51.80
13124;BME280;6627;50.920;12.050;2023-02-17T09:02:16;99152.91;;;17.65;51.04
13124;BME280;6627;50.920;12.050;2023-02-17T09:04:45;99124.44;;;17.45;50.79
13124;BME280;6627;50.920;12.050;2023-02-17T09:07:13;99099.97;;;17.07;51.63
13124;BME280;6627;50.920;12.050;2023-02-17T09:09:41;99120.63;;;17.37;51.08
13124;BME280;6627;50.920;12.050;2023-02-17T09:12:09;99170.59;;;18.01;49.84
13124;BME280;6627;50.920;12.050;2023-02-17T09:14:37;99242.97;;;18.78;48.76
13124;BME280;6627;50.920;12.050;2023-02-17T09:17:04;99172.84;;;18.44;48.62
13124;BME280;6627;50.920;12.050;2023-02-17T09:19:37;99117.41;;;18.02;49.26
13124;BME280;6627;50.920;12.050;2023-02-17T09:22:05;99112.53;;;17.74;50.40
13124;BME280;6627;50.920;12.050;2023-02-17T09:24:33;99117.81;;;17.79;50.63
13124;BME280;6627;50.920;12.050;2023-02-17T09:27:05;99063.53;;;17.60;50.30
13124;BME280;6627;50.920;12.050;2023-02-17T09:29:32;99060.50;;;17.08;51.49
13124;BME280;6627;50.920;12.050;2023-02-17T09:32:00;99065.09;;;17.16;51.22
13124;BME280;6627;50.920;12.050;2023-02-17T09:34:28;99094.94;;;17.63;51.07
13124;BME280;6627;50.920;12.050;2023-02-17T09:36:57;99122.97;;;17.81;50.82
13124;BME280;6627;50.920;12.050;2023-02-17T09:39:26;99112.53;;;17.74;50.97
13124;BME280;6627;50.920;12.050;2023-02-17T09:41:57;99131.91;;;17.69;51.42
13124;BME280;6627;50.920;12.050;2023-02-17T09:44:31;99169.06;;;18.24;49.75
13124;BME280;6627;50.920;12.050;2023-02-17T09:47:06;99182.31;;;18.59;49.27
13124;BME280;6627;50.920;12.050;2023-02-17T09:49:42;99155.81;;;18.51;49.03
13124;BME280;6627;50.920;12.050;2023-02-17T09:52:21;99099.22;;;17.97;49.79
13124;BME280;6627;50.920;12.050;2023-02-17T09:55:04;99119.22;;;18.10;50.03
13124;BME280;6627;50.920;12.050;2023-02-17T09:57:39;99095.47;;;18.14;49.39
13124;BME280;6627;50.920;12.050;2023-02-17T10:00:15;99145.53;;;18.48;49.75
13124;BME280;6627;50.920;12.050;2023-02-17T10:02:53;99126.00;;;18.25;49.80
13124;BME280;6627;50.920;12.050;2023-02-17T10:05:27;99142.56;;;18.28;50.17
13124;BME280;6627;50.920;12.050;2023-02-17T10:08:05;99118.78;;;18.20;50.22
13124;BME280;6627;50.920;12.050;2023-02-17T10:10:41;99111.47;;;18.61;49.08
13124;BME280;6627;50.920;12.050;2023-02-17T10:13:19;99085.19;;;18.23;49.35
13124;BME280;6627;50.920;12.050;2023-02-17T10:15:52;99074.00;;;17.92;50.04
13124;BME280;6627;50.920;12.050;2023-02-17T10:18:30;99117.66;;;18.33;50.11
13124;BME280;6627;50.920;12.050;2023-02-17T10:21:06;99122.09;;;18.50;49.67
13124;BME280;6627;50.920;12.050;2023-02-17T10:23:39;99147.34;;;18.80;49.12
13124;BME280;6627;50.920;12.050;2023-02-17T10:26:22;99143.25;;;18.86;49.10
13124;BME280;6627;50.920;12.050;2023-02-17T10:29:04;99115.13;;;18.53;49.54
13124;BME280;6627;50.920;12.050;2023-02-17T10:31:42;99105.28;;;18.52;49.27
13124;BME280;6627;50.920;12.050;2023-02-17T10:34:20;99129.50;;;18.62;49.42
13124;BME280;6627;50.920;12.050;2023-02-17T10:36:59;99174.03;;;19.20;48.38
13124;BME280;6627;50.920;12.050;2023-02-17T10:39:45;99027.84;;;18.18;49.71
13124;BME280;6627;50.920;12.050;2023-02-17T10:42:20;99118.97;;;19.01;48.63
13124;BME280;6627;50.920;12.050;2023-02-17T10:44:51;99103.66;;;18.87;48.85
13124;BME280;6627;50.920;12.050;2023-02-17T10:47:20;99099.34;;;18.74;49.26
13124;BME280;6627;50.920;12.050;2023-02-17T10:49:52;99076.34;;;18.54;49.52
13124;BME280;6627;50.920;12.050;2023-02-17T10:52:23;99095.69;;;18.58;49.54
13124;BME280;6627;50.920;12.050;2023-02-17T10:55:00;99073.97;;;18.40;50.22
13124;BME280;6627;50.920;12.050;2023-02-17T10:57:36;99090.19;;;18.58;49.89
13124;BME280;6627;50.920;12.050;2023-02-17T11:00:06;99049.41;;;18.44;49.81
13124;BME280;6627;50.920;12.050;2023-02-17T11:02:42;99066.91;;;18.39;50.27
13124;BME280;6627;50.920;12.050;2023-02-17T11:05:23;99103.06;;;18.94;49.53
13124;BME280;6627;50.920;12.050;2023-02-17T11:07:56;99076.69;;;18.65;49.60
13124;BME280;6627;50.920;12.050;2023-02-17T11:10:31;99040.28;;;18.40;49.82
13124;BME280;6627;50.920;12.050;2023-02-17T11:13:01;99033.00;;;18.84;49.51
13124;BME280;6627;50.920;12.050;2023-02-17T11:15:34;99085.63;;;19.14;48.83
13124;BME280;6627;50.920;12.050;2023-02-17T11:18:11;99095.31;;;19.24;48.63
13124;BME280;6627;50.920;12.050;2023-02-17T11:20:45;99010.72;;;18.21;50.35
13124;BME280;6627;50.920;12.050;2023-02-17T11:23:22;99119.72;;;19.13;49.90
13124;BME280;6627;50.920;12.050;2023-02-17T11:26:02;99065.34;;;18.91;50.09
13124;BME280;6627;50.920;12.050;2023-02-17T11:28:34;99172.25;;;19.80;48.81
13124;BME280;6627;50.920;12.050;2023-02-17T11:31:02;99065.56;;;19.26;48.53
13124;BME280;6627;50.920;12.050;2023-02-17T11:33:37;99116.22;;;19.57;48.94
13124;BME280;6627;50.920;12.050;2023-02-17T11:36:06;99088.19;;;19.51;48.29
13124;BME280;6627;50.920;12.050;2023-02-17T11:38:44;99052.16;;;18.97;49.54
13124;BME280;6627;50.920;12.050;2023-02-17T11:41:17;99049.69;;;18.92;50.03
13124;BME280;6627;50.920;12.050;2023-02-17T11:43:52;99066.03;;;19.16;49.61
13124;BME280;6627;50.920;12.050;2023-02-17T11:46:33;99097.09;;;19.60;48.99
13124;BME280;6627;50.920;12.050;2023-02-17T11:49:32;99032.34;;;19.31;48.63
13124;BME280;6627;50.920;12.050;2023-02-17T11:52:18;98978.47;;;18.43;50.44
13124;BME280;6627;50.920;12.050;2023-02-17T11:55:12;99010.38;;;18.63;50.83
13124;BME280;6627;50.920;12.050;2023-02-17T11:58:00;99046.91;;;19.04;50.46
13124;BME280;6627;50.920;12.050;2023-02-17T12:00:42;99048.97;;;18.95;50.93
13124;BME280;6627;50.920;12.050;2023-02-17T12:04:04;99086.19;;;19.64;49.22
13124;BME280;6627;50.920;12.050;2023-02-17T12:06:49;99114.25;;;19.85;49.38
13124;BME280;6627;50.920;12.050;2023-02-17T12:09:28;99154.53;;;20.57;48.17
13124;BME280;6627;50.920;12.050;2023-02-17T12:12:11;99107.34;;;20.23;48.32
13124;BME280;6627;50.920;12.050;2023-02-17T12:15:06;99044.28;;;19.67;48.79
13124;BME280;6627;50.920;12.050;2023-02-17T12:17:50;99030.41;;;19.48;49.42
13124;BME280;6627;50.920;12.050;2023-02-17T12:20:35;99036.75;;;19.64;49.14
13124;BME280;6627;50.920;12.050;2023-02-17T12:23:46;98940.97;;;19.34;48.31
13124;BME280;6627;50.920;12.050;2023-02-17T12:26:29;99022.63;;;19.50;49.78
13124;BME280;6627;50.920;12.050;2023-02-17T12:29:20;99105.88;;;20.61;47.90
13124;BME280;6627;50.920;12.050;2023-02-17T12:32:02;99001.78;;;19.49;49.53
13124;BME280;6627;50.920;12.050;2023-02-17T12:34:37;99019.16;;;19.53;49.67
13124;BME280;6627;50.920;12.050;2023-02-17T12:37:11;98943.78;;;18.90;50.21
13124;BME280;6627;50.920;12.050;2023-02-17T12:39:47;99045.59;;;19.73;50.12
13124;BME280;6627;50.920;12.050;2023-02-17T12:42:20;99059.81;;;19.75;49.83
13124;BME280;6627;50.920;12.050;2023-02-17T12:44:55;99081.00;;;20.06;49.08
13124;BME280;6627;50.920;12.050;2023-02-17T12:47:29;99049.59;;;19.91;49.15
13124;BME280;6627;50.920;12.050;2023-02-17T12:50:13;98996.41;;;19.68;48.59
13124;BME280;6627;50.920;12.050;2023-02-17T12:52:45;99036.56;;;19.88;49.24
13124;BME280;6627;50.920;12.050;2023-02-17T12:55:20;99048.63;;;20.00;49.03
13124;BME280;6627;50.920;12.050;2023-02-17T12:57:53;99030.34;;;19.91;48.77
13124;BME280;6627;50.920;12.050;2023-02-17T13:00:28;99049.69;;;20.11;49.14
13124;BME280;6627;50.920;12.050;2023-02-17T13:03:03;99014.84;;;19.99;48.91
13124;BME280;6627;50.920;12.050;2023-02-17T13:05:38;99007.13;;;19.89;48.79
13124;BME280;6627;50.920;12.050;2023-02-17T13:08:15;99017.56;;;20.15;48.24
13124;BME280;6627;50.920;12.050;2023-02-17T13:10:45;99028.22;;;20.01;48.96
13124;BME280;6627;50.920;12.050;2023-02-17T13:13:26;99051.69;;;20.30;48.58
13124;BME280;6627;50.920;12.050;2023-02-17T13:16:04;99016.97;;;19.90;48.73
13124;BME280;6627;50.920;12.050;2023-02-17T13:18:35;99020.84;;;20.21;48.39
13124;BME280;6627;50.920;12.050;2023-02-17T13:21:17;98959.31;;;19.46;49.14
13124;BME280;6627;50.920;12.050;2023-02-17T13:23:58;99013.06;;;19.91;49.04
13124;BME280;6627;50.920;12.050;2023-02-17T13:26:30;98926.63;;;19.25;49.39
13124;BME280;6627;50.920;12.050;2023-02-17T13:29:17;98972.75;;;19.79;48.80